RJOA/HIJ METAR and TAF weather

Enter ICAO airport designator
Station Type Date Time Source
RJOA METAR 2020/07/11 22:00 UTC NOAA

RJOA 112200Z 00000KT 9999 FEW010 BKN170 BKN/// 21/18 Q1011


Station Type Date Time Source
RJOA Decoded METAR 2020/07/11 22:00 UTC NOAA

Hiroshima Airport, Japan (RJOA) 34-26N 132-55E 334M
Jul 11, 2020 - 06:00 PM EDT / 2020.07.11 2200 UTC
Wind: Calm:0
Visibility: greater than 7 mile(s):0
Sky conditions: mostly cloudy
Temperature: 69 F (21 C)
Dew Point: 64 F (18 C)
Relative Humidity: 82%
Pressure (altimeter): 29.85 in. Hg (1011 hPa)
ob: RJOA 112200Z 00000KT 9999 FEW010 BKN170 BKN/// 21/18 Q1011
cycle: 22

Station Type Date Time Source
RJOA TAF 2020/07/11 18:29 UTC NOAA

TAF RJOA 111706Z 1118/1300 32004KT 9999 FEW006 SCT020

Example: see airport list